createdAt,value
2023-11-03T00:00:48.334Z,12.38
2023-11-03T00:05:50.974Z,15.70
2023-11-03T00:10:56.244Z,12.13
2023-11-03T00:15:58.956Z,12.18
2023-11-03T00:21:05.153Z,14.75
2023-11-03T00:26:11.657Z,15.98
2023-11-03T00:31:16.092Z,20.17
2023-11-03T00:36:18.868Z,15.85
2023-11-03T00:41:21.834Z,15.05
2023-11-03T00:46:24.396Z,15.05
2023-11-03T00:51:29.867Z,13.60
2023-11-03T00:56:33.674Z,16.33
2023-11-03T01:01:36.982Z,14.45
2023-11-03T01:06:40.578Z,14.65
2023-11-03T01:11:43.168Z,15.82
2023-11-03T01:16:46.104Z,13.40
2023-11-03T01:21:51.156Z,14.45
2023-11-03T01:31:56.073Z,12.20
2023-11-03T01:36:58.759Z,12.93
2023-11-03T01:42:01.389Z,10.15
2023-11-03T01:47:04.888Z,12.30
2023-11-03T01:52:10.845Z,8.55
2023-11-03T01:57:13.464Z,15.02
2023-11-03T02:02:16.716Z,11.25
2023-11-03T02:07:19.560Z,11.25
2023-11-03T02:12:22.648Z,10.75
2023-11-03T02:17:27.905Z,13.50
2023-11-03T02:22:55.167Z,11.80
2023-11-03T02:27:59.587Z,10.50
2023-11-03T02:33:03.732Z,12.55
2023-11-03T02:38:06.818Z,11.82
2023-11-03T02:43:09.431Z,20.48
2023-11-03T02:48:12.198Z,18.70
2023-11-03T02:53:14.930Z,20.38
2023-11-03T02:58:17.638Z,13.45
2023-11-03T03:03:20.394Z,11.35
2023-11-03T03:08:23.053Z,14.70
2023-11-03T03:13:25.694Z,12.05
2023-11-03T03:18:28.709Z,13.48
2023-11-03T03:23:31.253Z,15.52
2023-11-03T03:28:37.164Z,13.18
2023-11-03T03:33:40.782Z,19.08
2023-11-03T03:38:46.968Z,16.23
2023-11-03T03:43:50.683Z,17.52
2023-11-03T03:48:53.278Z,19.75
2023-11-03T03:53:55.865Z,13.88
2023-11-03T03:58:58.808Z,14.18
2023-11-03T04:04:01.456Z,27.75
2023-11-03T04:09:04.418Z,20.02
2023-11-03T04:14:07.124Z,22.77
2023-11-03T04:19:09.793Z,20.50
2023-11-03T04:24:13.295Z,15.43
2023-11-03T04:29:16.234Z,18.02
2023-11-03T04:34:19.027Z,24.30
2023-11-03T04:39:21.887Z,16.83
2023-11-03T04:44:25.224Z,24.70
2023-11-03T04:49:29.658Z,30.92
2023-11-03T04:54:32.372Z,22.58
2023-11-03T04:59:34.951Z,13.35
2023-11-03T05:04:37.486Z,16.85
2023-11-03T05:09:40.028Z,12.25
2023-11-03T05:14:42.577Z,15.45
2023-11-03T05:19:45.145Z,11.88
2023-11-03T05:24:47.857Z,17.00
2023-11-03T05:29:50.500Z,14.68
2023-11-03T05:34:54.192Z,13.00
2023-11-03T05:39:56.799Z,18.48
2023-11-03T05:44:59.414Z,21.73
2023-11-03T05:50:02.087Z,18.85
2023-11-03T05:55:15.414Z,16.52
2023-11-03T06:00:21.023Z,15.68
2023-11-03T06:05:23.607Z,20.80
2023-11-03T06:10:30.052Z,15.00
2023-11-03T06:15:33.005Z,12.40
2023-11-03T06:20:38.309Z,9.07
2023-11-03T06:25:43.108Z,6.45
2023-11-03T06:30:49.201Z,6.38
2023-11-03T06:35:57.744Z,4.88
2023-11-03T06:41:00.294Z,9.05
2023-11-03T06:46:03.006Z,8.95
2023-11-03T06:51:15.812Z,16.27
2023-11-03T06:56:18.522Z,31.08
2023-11-03T07:06:24.839Z,24.30
2023-11-03T07:11:27.555Z,13.57
2023-11-03T07:16:30.232Z,9.90
2023-11-03T07:21:32.891Z,31.10
2023-11-03T07:26:35.466Z,8.38
2023-11-03T07:31:47.754Z,14.52
2023-11-03T07:36:50.699Z,18.90
2023-11-03T07:41:53.275Z,10.93
2023-11-03T07:46:58.872Z,10.52
2023-11-03T07:52:02.089Z,11.70
2023-11-03T07:57:05.493Z,13.77
2023-11-03T08:02:09.465Z,18.05
2023-11-03T08:07:14.693Z,10.77
2023-11-03T08:12:20.533Z,9.07
2023-11-03T08:17:26.362Z,11.73
2023-11-03T08:22:30.708Z,11.15
2023-11-03T08:27:35.421Z,12.55
2023-11-03T08:32:44.134Z,13.05
2023-11-03T08:37:49.941Z,14.15
2023-11-03T08:42:55.254Z,7.20
2023-11-03T08:47:58.239Z,5.90
2023-11-03T08:58:04.230Z,10.00
2023-11-03T09:03:09.512Z,7.38
2023-11-03T09:08:12.662Z,8.80
2023-11-03T09:18:21.254Z,8.27
2023-11-03T09:23:24.000Z,10.35
2023-11-03T09:28:26.610Z,17.20
2023-11-03T09:33:31.469Z,18.08
2023-11-03T09:38:35.636Z,14.23
2023-11-03T09:43:38.431Z,16.65
2023-11-03T09:48:45.503Z,9.88
2023-11-03T09:53:54.198Z,9.30
2023-11-03T09:58:58.575Z,22.58
2023-11-03T10:04:02.287Z,18.80
2023-11-03T10:09:15.525Z,14.35
2023-11-03T10:14:18.455Z,14.27
2023-11-03T10:19:23.889Z,13.40
2023-11-03T10:24:26.889Z,14.65
2023-11-03T10:29:29.895Z,12.05
2023-11-03T10:34:33.864Z,8.95
2023-11-03T10:39:40.268Z,9.30
2023-11-03T10:44:45.665Z,7.28
2023-11-03T10:49:56.147Z,11.73
2023-11-03T10:55:18.736Z,18.65
2023-11-03T11:00:33.729Z,14.95
2023-11-03T11:06:05.854Z,7.05
2023-11-03T11:11:18.169Z,10.43
2023-11-03T11:16:26.768Z,11.82
2023-11-03T11:21:36.360Z,9.25
2023-11-03T11:26:41.715Z,6.88
2023-11-03T11:31:47.927Z,4.47
2023-11-03T11:36:52.598Z,5.40
2023-11-03T11:42:01.733Z,4.25
2023-11-03T11:47:07.939Z,13.50
2023-11-03T11:52:10.668Z,5.97
2023-11-03T11:57:17.519Z,5.43
2023-11-03T12:02:26.731Z,6.90
2023-11-03T12:07:35.824Z,9.80
2023-11-03T12:12:44.284Z,6.45
2023-11-03T12:17:47.851Z,9.80
2023-11-03T12:22:54.413Z,9.68
2023-11-03T12:28:07.298Z,6.57
2023-11-03T12:33:19.526Z,5.80
2023-11-03T12:38:29.197Z,7.40
2023-11-03T12:43:32.305Z,7.13
2023-11-03T12:48:38.114Z,7.00
2023-11-03T12:53:49.975Z,6.65
2023-11-03T12:59:01.365Z,8.65
2023-11-03T13:04:10.290Z,7.20
2023-11-03T13:09:19.986Z,6.22
2023-11-03T13:14:22.626Z,7.55
2023-11-03T13:19:42.923Z,3.42
2023-11-03T13:25:07.758Z,8.75
2023-11-03T13:30:14.027Z,5.15
2023-11-03T13:35:24.419Z,8.95
2023-11-03T13:40:32.722Z,4.72
2023-11-03T13:45:45.991Z,12.98
2023-11-03T13:50:54.410Z,16.10
2023-11-03T13:56:04.020Z,9.43
2023-11-03T14:01:10.308Z,11.02
2023-11-03T14:06:13.395Z,10.25
2023-11-03T14:11:17.654Z,15.40
2023-11-03T14:16:20.967Z,10.02
2023-11-03T14:21:28.272Z,15.25
2023-11-03T14:26:33.488Z,16.15
2023-11-03T14:31:40.439Z,15.50
2023-11-03T14:36:46.299Z,16.58
2023-11-03T14:41:54.609Z,14.63
2023-11-03T14:46:59.512Z,11.15
2023-11-03T14:52:04.383Z,14.73
2023-11-03T14:57:08.111Z,16.40
2023-11-03T15:02:11.280Z,12.90
2023-11-03T15:07:18.698Z,17.35
2023-11-03T15:12:24.854Z,17.75
2023-11-03T15:17:42.060Z,15.50
2023-11-03T15:22:52.753Z,14.13
2023-11-03T15:28:14.488Z,8.70
2023-11-03T15:33:29.230Z,12.07
2023-11-03T15:38:36.985Z,15.73
2023-11-03T15:43:55.206Z,13.32
2023-11-03T15:48:59.898Z,13.90
2023-11-03T15:54:04.961Z,10.93
2023-11-03T15:59:10.753Z,8.75
2023-11-03T16:04:26.749Z,8.05
2023-11-03T16:09:30.439Z,9.77
2023-11-03T16:14:33.563Z,11.07
2023-11-03T16:19:39.885Z,9.75
2023-11-03T16:24:43.069Z,13.13
2023-11-03T16:29:48.197Z,11.93
2023-11-03T16:34:51.305Z,15.48
2023-11-03T16:39:55.189Z,13.27
2023-11-03T16:45:11.519Z,14.40
2023-11-03T16:50:17.505Z,12.88
2023-11-03T16:55:26.388Z,13.38
2023-11-03T17:00:39.612Z,12.90
2023-11-03T17:05:55.670Z,14.80
2023-11-03T17:11:02.610Z,17.60
2023-11-03T17:16:08.388Z,17.50
2023-11-03T17:21:15.879Z,8.18
2023-11-03T17:26:23.704Z,8.15
2023-11-03T17:31:34.705Z,8.63
2023-11-03T17:36:41.975Z,7.20
2023-11-03T17:41:46.298Z,5.40
2023-11-03T17:47:00.533Z,5.75
2023-11-03T17:52:09.398Z,10.30
2023-11-03T17:57:18.476Z,12.90
2023-11-03T18:02:24.147Z,8.20
2023-11-03T18:07:28.935Z,6.60
2023-11-03T18:12:31.757Z,6.53
2023-11-03T18:17:37.946Z,5.97
2023-11-03T18:23:07.093Z,6.55
2023-11-03T18:28:20.366Z,6.43
2023-11-03T18:33:27.711Z,6.68
2023-11-03T18:38:31.677Z,7.72
2023-11-03T18:43:34.288Z,6.45
2023-11-03T18:48:39.836Z,9.15
2023-11-03T18:55:22.727Z,7.63
2023-11-03T19:00:22.262Z,11.05
2023-11-03T19:09:44.608Z,16.33
2023-11-03T19:14:51.016Z,13.68
2023-11-03T19:20:31.285Z,12.18
2023-11-03T19:30:44.911Z,7.13
2023-11-03T19:35:50.997Z,8.23
2023-11-03T19:40:56.901Z,7.60
2023-11-03T19:46:10.207Z,7.32
2023-11-03T19:51:14.527Z,10.48
2023-11-03T19:56:17.812Z,7.38
2023-11-03T20:01:21.424Z,8.27
2023-11-03T20:06:28.198Z,13.45
2023-11-03T20:11:33.487Z,12.82
2023-11-03T20:16:38.939Z,11.18
2023-11-03T20:21:42.451Z,9.68
2023-11-03T20:26:46.894Z,6.53
2023-11-03T20:31:49.432Z,11.55
2023-11-03T20:36:56.583Z,9.50
2023-11-03T20:42:02.913Z,9.75
2023-11-03T20:47:07.269Z,7.93
2023-11-03T20:52:10.035Z,9.80
2023-11-03T20:57:14.945Z,11.88
2023-11-03T21:02:20.136Z,10.00
2023-11-03T21:07:22.758Z,9.45
2023-11-03T21:12:25.521Z,11.93
2023-11-03T21:17:29.255Z,12.75
2023-11-03T21:22:37.081Z,9.80
2023-11-03T21:27:39.893Z,10.57
2023-11-03T21:32:46.868Z,12.70
2023-11-03T21:37:49.652Z,14.23
2023-11-03T21:42:52.889Z,12.88
2023-11-03T21:47:55.570Z,13.93
2023-11-03T21:52:58.227Z,13.95
2023-11-03T21:58:03.206Z,11.27
2023-11-03T22:03:06.538Z,11.73
2023-11-03T22:08:09.125Z,12.65
2023-11-03T22:13:14.644Z,11.82
2023-11-03T22:18:17.902Z,13.02
2023-11-03T22:23:21.891Z,10.45
2023-11-03T22:28:24.539Z,14.75
2023-11-03T22:33:27.119Z,14.65
2023-11-03T22:38:29.712Z,11.38
2023-11-03T22:43:32.445Z,12.98
2023-11-03T22:48:35.199Z,13.15
2023-11-03T22:53:38.669Z,13.98
2023-11-03T22:58:41.215Z,16.23
2023-11-03T23:03:44.162Z,12.93
2023-11-03T23:08:49.188Z,14.18
2023-11-03T23:13:51.827Z,13.20
2023-11-03T23:18:54.472Z,11.25
2023-11-03T23:23:57.648Z,8.57
2023-11-03T23:29:02.096Z,8.55
2023-11-03T23:34:05.047Z,9.05
2023-11-03T23:39:09.091Z,8.88
2023-11-03T23:44:13.054Z,7.50
2023-11-03T23:49:15.738Z,8.13
2023-11-03T23:54:18.316Z,7.13
2023-11-03T23:59:22.228Z,11.75
